sensor_id;sensor_type;location;lat;lon;timestamp;temperature;humidity
46458;DHT22;32155;54.076;12.092;2023-04-25T00:01:53;9.30;99.90
46458;DHT22;32155;54.076;12.092;2023-04-25T00:08:19;9.30;99.90
46458;DHT22;32155;54.076;12.092;2023-04-25T00:10:50;9.30;99.90
46458;DHT22;32155;54.076;12.092;2023-04-25T00:14:00;9.20;99.90
46458;DHT22;32155;54.076;12.092;2023-04-25T00:16:29;9.20;99.90
46458;DHT22;32155;54.076;12.092;2023-04-25T00:19:01;9.20;99.90
46458;DHT22;32155;54.076;12.092;2023-04-25T00:21:31;9.10;99.90
46458;DHT22;32155;54.076;12.092;2023-04-25T00:35:39;9.10;99.90
46458;DHT22;32155;54.076;12.092;2023-04-25T00:38:33;9.00;99.90
46458;DHT22;32155;54.076;12.092;2023-04-25T00:41:10;8.90;99.90
46458;DHT22;32155;54.076;12.092;2023-04-25T00:47:36;8.90;99.90
46458;DHT22;32155;54.076;12.092;2023-04-25T01:28:13;8.90;99.90
46458;DHT22;32155;54.076;12.092;2023-04-25T01:31:25;8.80;99.90
46458;DHT22;32155;54.076;12.092;2023-04-25T01:33:53;8.90;99.90
46458;DHT22;32155;54.076;12.092;2023-04-25T01:36:33;8.80;99.90
46458;DHT22;32155;54.076;12.092;2023-04-25T01:52:06;9.00;99.90
46458;DHT22;32155;54.076;12.092;2023-04-25T01:54:47;9.00;99.90
46458;DHT22;32155;54.076;12.092;2023-04-25T02:00:39;9.00;99.90
46458;DHT22;32155;54.076;12.092;2023-04-25T02:03:36;9.00;99.90
46458;DHT22;32155;54.076;12.092;2023-04-25T02:06:58;8.90;99.90
46458;DHT22;32155;54.076;12.092;2023-04-25T02:20:40;8.90;99.90
46458;DHT22;32155;54.076;12.092;2023-04-25T02:23:09;8.80;99.90
46458;DHT22;32155;54.076;12.092;2023-04-25T02:28:40;8.90;99.90
46458;DHT22;32155;54.076;12.092;2023-04-25T02:31:06;8.90;99.90
46458;DHT22;32155;54.076;12.092;2023-04-25T02:33:31;8.90;99.90
46458;DHT22;32155;54.076;12.092;2023-04-25T02:35:57;9.00;99.90
46458;DHT22;32155;54.076;12.092;2023-04-25T02:38:23;9.00;99.90
46458;DHT22;32155;54.076;12.092;2023-04-25T02:40:48;9.00;99.90
46458;DHT22;32155;54.076;12.092;2023-04-25T02:43:14;9.00;99.90
46458;DHT22;32155;54.076;12.092;2023-04-25T02:45:41;9.00;99.90
46458;DHT22;32155;54.076;12.092;2023-04-25T02:48:07;8.90;99.90
46458;DHT22;32155;54.076;12.092;2023-04-25T02:50:38;8.90;99.90
46458;DHT22;32155;54.076;12.092;2023-04-25T02:53:06;8.80;99.90
46458;DHT22;32155;54.076;12.092;2023-04-25T02:55:32;8.70;99.90
46458;DHT22;32155;54.076;12.092;2023-04-25T02:58:11;8.70;99.90
46458;DHT22;32155;54.076;12.092;2023-04-25T03:00:36;8.60;99.90
46458;DHT22;32155;54.076;12.092;2023-04-25T03:03:02;8.50;99.90
46458;DHT22;32155;54.076;12.092;2023-04-25T03:05:28;8.50;99.90
46458;DHT22;32155;54.076;12.092;2023-04-25T03:07:54;8.40;99.90
46458;DHT22;32155;54.076;12.092;2023-04-25T03:10:19;8.50;99.90
46458;DHT22;32155;54.076;12.092;2023-04-25T03:20:19;8.30;99.90
46458;DHT22;32155;54.076;12.092;2023-04-25T03:27:48;8.40;99.90
46458;DHT22;32155;54.076;12.092;2023-04-25T03:31:32;8.30;99.90
46458;DHT22;32155;54.076;12.092;2023-04-25T03:35:11;8.30;99.90
46458;DHT22;32155;54.076;12.092;2023-04-25T03:38:36;8.30;99.90
46458;DHT22;32155;54.076;12.092;2023-04-25T03:45:05;8.20;99.90
46458;DHT22;32155;54.076;12.092;2023-04-25T03:48:13;8.10;99.90
46458;DHT22;32155;54.076;12.092;2023-04-25T03:50:42;8.10;99.90
46458;DHT22;32155;54.076;12.092;2023-04-25T03:53:07;8.00;99.90
46458;DHT22;32155;54.076;12.092;2023-04-25T03:55:35;8.00;99.90
46458;DHT22;32155;54.076;12.092;2023-04-25T03:58:01;8.10;99.90
46458;DHT22;32155;54.076;12.092;2023-04-25T04:00:26;8.20;99.90
46458;DHT22;32155;54.076;12.092;2023-04-25T04:02:55;8.10;99.90
46458;DHT22;32155;54.076;12.092;2023-04-25T04:05:24;8.10;99.90
46458;DHT22;32155;54.076;12.092;2023-04-25T04:07:54;8.00;99.90
46458;DHT22;32155;54.076;12.092;2023-04-25T04:10:21;7.90;99.90
46458;DHT22;32155;54.076;12.092;2023-04-25T04:12:47;7.90;99.90
46458;DHT22;32155;54.076;12.092;2023-04-25T04:15:15;7.90;99.90
46458;DHT22;32155;54.076;12.092;2023-04-25T04:17:40;8.00;99.90
46458;DHT22;32155;54.076;12.092;2023-04-25T04:20:07;8.10;99.90
46458;DHT22;32155;54.076;12.092;2023-04-25T04:22:33;8.10;99.90
46458;DHT22;32155;54.076;12.092;2023-04-25T04:25:00;8.10;99.90
46458;DHT22;32155;54.076;12.092;2023-04-25T04:27:28;8.20;99.90
46458;DHT22;32155;54.076;12.092;2023-04-25T04:29:55;8.10;99.90
46458;DHT22;32155;54.076;12.092;2023-04-25T04:32:23;8.10;99.90
46458;DHT22;32155;54.076;12.092;2023-04-25T04:34:50;7.90;99.90
46458;DHT22;32155;54.076;12.092;2023-04-25T04:37:17;8.00;99.90
46458;DHT22;32155;54.076;12.092;2023-04-25T04:39:45;8.00;99.90
46458;DHT22;32155;54.076;12.092;2023-04-25T04:42:11;8.00;99.90
46458;DHT22;32155;54.076;12.092;2023-04-25T04:44:37;8.00;99.90
46458;DHT22;32155;54.076;12.092;2023-04-25T04:47:04;8.10;99.90
46458;DHT22;32155;54.076;12.092;2023-04-25T04:49:32;8.10;99.90
46458;DHT22;32155;54.076;12.092;2023-04-25T04:51:58;8.10;99.90
46458;DHT22;32155;54.076;12.092;2023-04-25T04:54:25;8.10;99.90
46458;DHT22;32155;54.076;12.092;2023-04-25T04:56:51;8.10;99.90
46458;DHT22;32155;54.076;12.092;2023-04-25T04:59:19;8.20;99.90
46458;DHT22;32155;54.076;12.092;2023-04-25T05:01:45;8.10;99.90
46458;DHT22;32155;54.076;12.092;2023-04-25T05:04:12;8.00;99.90
46458;DHT22;32155;54.076;12.092;2023-04-25T05:06:38;7.90;99.90
46458;DHT22;32155;54.076;12.092;2023-04-25T05:09:09;7.70;99.90
46458;DHT22;32155;54.076;12.092;2023-04-25T05:11:34;7.60;99.90
46458;DHT22;32155;54.076;12.092;2023-04-25T05:14:03;7.60;99.90
46458;DHT22;32155;54.076;12.092;2023-04-25T05:16:29;7.80;99.90
46458;DHT22;32155;54.076;12.092;2023-04-25T05:18:55;8.10;99.90
46458;DHT22;32155;54.076;12.092;2023-04-25T05:21:21;8.40;99.90
46458;DHT22;32155;54.076;12.092;2023-04-25T05:23:46;8.60;99.90
46458;DHT22;32155;54.076;12.092;2023-04-25T05:26:12;8.80;99.90
46458;DHT22;32155;54.076;12.092;2023-04-25T05:28:49;9.00;99.90
46458;DHT22;32155;54.076;12.092;2023-04-25T05:31:40;9.60;99.90
46458;DHT22;32155;54.076;12.092;2023-04-25T05:34:10;9.80;99.90
46458;DHT22;32155;54.076;12.092;2023-04-25T05:37:11;9.60;99.90
46458;DHT22;32155;54.076;12.092;2023-04-25T05:39:37;9.40;99.90
46458;DHT22;32155;54.076;12.092;2023-04-25T05:42:05;9.40;99.90
46458;DHT22;32155;54.076;12.092;2023-04-25T05:44:36;9.10;99.90
46458;DHT22;32155;54.076;12.092;2023-04-25T05:47:04;8.80;99.90
46458;DHT22;32155;54.076;12.092;2023-04-25T05:49:34;9.00;99.90
46458;DHT22;32155;54.076;12.092;2023-04-25T05:52:00;9.40;99.90
46458;DHT22;32155;54.076;12.092;2023-04-25T05:54:28;9.90;99.90
46458;DHT22;32155;54.076;12.092;2023-04-25T05:57:00;9.90;99.90
46458;DHT22;32155;54.076;12.092;2023-04-25T05:59:25;9.90;99.90
46458;DHT22;32155;54.076;12.092;2023-04-25T06:01:51;9.90;99.90
46458;DHT22;32155;54.076;12.092;2023-04-25T06:04:17;9.80;99.90
46458;DHT22;32155;54.076;12.092;2023-04-25T06:06:45;9.60;99.90
46458;DHT22;32155;54.076;12.092;2023-04-25T06:09:21;9.40;99.90
46458;DHT22;32155;54.076;12.092;2023-04-25T06:11:47;10.20;99.90
46458;DHT22;32155;54.076;12.092;2023-04-25T06:14:12;10.40;99.90
46458;DHT22;32155;54.076;12.092;2023-04-25T06:16:49;10.80;99.90
46458;DHT22;32155;54.076;12.092;2023-04-25T06:19:36;11.20;99.90
46458;DHT22;32155;54.076;12.092;2023-04-25T06:22:15;10.80;99.90
46458;DHT22;32155;54.076;12.092;2023-04-25T06:24:42;10.50;99.90
46458;DHT22;32155;54.076;12.092;2023-04-25T06:27:07;10.90;99.90
46458;DHT22;32155;54.076;12.092;2023-04-25T06:29:36;11.20;99.90
46458;DHT22;32155;54.076;12.092;2023-04-25T06:32:02;11.50;99.90
46458;DHT22;32155;54.076;12.092;2023-04-25T06:34:51;11.20;99.90
46458;DHT22;32155;54.076;12.092;2023-04-25T06:37:19;11.10;99.90
46458;DHT22;32155;54.076;12.092;2023-04-25T06:39:52;11.20;99.90
46458;DHT22;32155;54.076;12.092;2023-04-25T06:42:21;11.30;99.90
46458;DHT22;32155;54.076;12.092;2023-04-25T06:44:46;11.60;99.90
46458;DHT22;32155;54.076;12.092;2023-04-25T06:47:13;11.70;99.90
46458;DHT22;32155;54.076;12.092;2023-04-25T06:49:39;11.40;99.90
46458;DHT22;32155;54.076;12.092;2023-04-25T06:52:07;11.40;99.90
46458;DHT22;32155;54.076;12.092;2023-04-25T06:54:36;11.10;99.90
46458;DHT22;32155;54.076;12.092;2023-04-25T06:57:08;11.10;99.90
46458;DHT22;32155;54.076;12.092;2023-04-25T06:59:54;11.00;99.90
46458;DHT22;32155;54.076;12.092;2023-04-25T07:02:26;11.00;99.90
46458;DHT22;32155;54.076;12.092;2023-04-25T07:04:57;11.00;99.90
46458;DHT22;32155;54.076;12.092;2023-04-25T07:07:33;11.20;99.90
46458;DHT22;32155;54.076;12.092;2023-04-25T07:09:59;11.40;99.90
46458;DHT22;32155;54.076;12.092;2023-04-25T07:12:28;11.70;99.90
46458;DHT22;32155;54.076;12.092;2023-04-25T07:14:56;11.60;99.90
46458;DHT22;32155;54.076;12.092;2023-04-25T07:17:26;10.90;99.90
46458;DHT22;32155;54.076;12.092;2023-04-25T07:19:51;10.80;99.90
46458;DHT22;32155;54.076;12.092;2023-04-25T07:22:19;11.00;99.90
46458;DHT22;32155;54.076;12.092;2023-04-25T07:24:45;10.70;99.90
46458;DHT22;32155;54.076;12.092;2023-04-25T07:33:29;10.70;99.90
46458;DHT22;32155;54.076;12.092;2023-04-25T07:35:55;10.70;99.90
46458;DHT22;32155;54.076;12.092;2023-04-25T07:38:32;10.70;99.90
46458;DHT22;32155;54.076;12.092;2023-04-25T07:44:22;11.20;99.90
46458;DHT22;32155;54.076;12.092;2023-04-25T07:50:25;11.20;99.90
46458;DHT22;32155;54.076;12.092;2023-04-25T07:52:51;11.90;99.90
46458;DHT22;32155;54.076;12.092;2023-04-25T07:55:48;12.70;99.90
46458;DHT22;32155;54.076;12.092;2023-04-25T07:58:17;13.10;99.90
46458;DHT22;32155;54.076;12.092;2023-04-25T08:00:48;13.40;99.90
46458;DHT22;32155;54.076;12.092;2023-04-25T08:03:19;13.80;99.90
46458;DHT22;32155;54.076;12.092;2023-04-25T08:05:48;15.00;99.90
46458;DHT22;32155;54.076;12.092;2023-04-25T08:08:14;14.50;99.90
46458;DHT22;32155;54.076;12.092;2023-04-25T08:10:39;13.80;99.90
46458;DHT22;32155;54.076;12.092;2023-04-25T08:13:07;13.50;99.90
46458;DHT22;32155;54.076;12.092;2023-04-25T08:15:33;13.10;99.90
46458;DHT22;32155;54.076;12.092;2023-04-25T08:17:59;13.80;99.90
46458;DHT22;32155;54.076;12.092;2023-04-25T08:20:25;15.00;99.90
46458;DHT22;32155;54.076;12.092;2023-04-25T08:22:55;14.20;99.90
46458;DHT22;32155;54.076;12.092;2023-04-25T08:25:23;13.30;99.90
46458;DHT22;32155;54.076;12.092;2023-04-25T08:27:48;12.30;99.90
46458;DHT22;32155;54.076;12.092;2023-04-25T08:30:14;11.90;99.90
46458;DHT22;32155;54.076;12.092;2023-04-25T08:32:40;11.70;99.90
46458;DHT22;32155;54.076;12.092;2023-04-25T08:35:06;11.60;99.90
46458;DHT22;32155;54.076;12.092;2023-04-25T08:37:32;14.20;99.90
46458;DHT22;32155;54.076;12.092;2023-04-25T08:39:58;15.60;99.90
46458;DHT22;32155;54.076;12.092;2023-04-25T08:49:25;16.70;93.60
46458;DHT22;32155;54.076;12.092;2023-04-25T08:51:56;15.90;93.80
46458;DHT22;32155;54.076;12.092;2023-04-25T09:07:57;13.30;99.90
46458;DHT22;32155;54.076;12.092;2023-04-25T09:10:23;12.60;99.90
46458;DHT22;32155;54.076;12.092;2023-04-25T09:13:11;11.80;99.90
46458;DHT22;32155;54.076;12.092;2023-04-25T09:18:13;11.70;99.90
46458;DHT22;32155;54.076;12.092;2023-04-25T09:21:09;11.60;99.90
46458;DHT22;32155;54.076;12.092;2023-04-25T09:23:45;11.00;99.90
46458;DHT22;32155;54.076;12.092;2023-04-25T09:26:15;10.90;99.90
46458;DHT22;32155;54.076;12.092;2023-04-25T09:28:44;11.00;99.90
46458;DHT22;32155;54.076;12.092;2023-04-25T09:31:12;10.70;99.90
46458;DHT22;32155;54.076;12.092;2023-04-25T09:33:38;10.70;99.90
46458;DHT22;32155;54.076;12.092;2023-04-25T09:36:08;10.60;99.90
46458;DHT22;32155;54.076;12.092;2023-04-25T09:38:43;10.70;99.90
46458;DHT22;32155;54.076;12.092;2023-04-25T09:41:09;10.50;99.90
46458;DHT22;32155;54.076;12.092;2023-04-25T09:43:36;10.50;99.90
46458;DHT22;32155;54.076;12.092;2023-04-25T09:46:02;10.70;99.90
46458;DHT22;32155;54.076;12.092;2023-04-25T09:48:28;10.80;99.90
46458;DHT22;32155;54.076;12.092;2023-04-25T09:51:03;10.80;99.90
46458;DHT22;32155;54.076;12.092;2023-04-25T09:53:37;10.80;99.90
46458;DHT22;32155;54.076;12.092;2023-04-25T09:56:09;10.70;99.90
46458;DHT22;32155;54.076;12.092;2023-04-25T09:58:37;10.70;99.90
46458;DHT22;32155;54.076;12.092;2023-04-25T10:01:06;10.60;99.90
46458;DHT22;32155;54.076;12.092;2023-04-25T10:03:34;10.70;99.90
46458;DHT22;32155;54.076;12.092;2023-04-25T10:06:05;11.10;99.90
46458;DHT22;32155;54.076;12.092;2023-04-25T10:08:34;11.40;99.90
46458;DHT22;32155;54.076;12.092;2023-04-25T10:11:02;11.80;99.90
46458;DHT22;32155;54.076;12.092;2023-04-25T10:13:30;11.90;99.90
46458;DHT22;32155;54.076;12.092;2023-04-25T10:16:00;12.30;99.90
46458;DHT22;32155;54.076;12.092;2023-04-25T10:18:27;12.90;99.90
46458;DHT22;32155;54.076;12.092;2023-04-25T10:21:06;13.40;99.90
46458;DHT22;32155;54.076;12.092;2023-04-25T10:23:38;14.40;99.90
46458;DHT22;32155;54.076;12.092;2023-04-25T10:26:04;17.10;99.90
46458;DHT22;32155;54.076;12.092;2023-04-25T10:28:29;20.80;97.90
46458;DHT22;32155;54.076;12.092;2023-04-25T10:31:17;20.40;91.00
46458;DHT22;32155;54.076;12.092;2023-04-25T10:33:43;18.70;90.30
46458;DHT22;32155;54.076;12.092;2023-04-25T10:36:13;17.30;91.80
46458;DHT22;32155;54.076;12.092;2023-04-25T10:38:46;16.10;92.50
46458;DHT22;32155;54.076;12.092;2023-04-25T10:41:14;14.70;93.70
46458;DHT22;32155;54.076;12.092;2023-04-25T10:43:45;13.60;95.60
46458;DHT22;32155;54.076;12.092;2023-04-25T10:46:22;13.00;96.80
46458;DHT22;32155;54.076;12.092;2023-04-25T10:48:50;12.60;98.80
46458;DHT22;32155;54.076;12.092;2023-04-25T10:51:23;12.40;99.80
46458;DHT22;32155;54.076;12.092;2023-04-25T10:56:22;12.00;99.90
46458;DHT22;32155;54.076;12.092;2023-04-25T10:58:51;12.00;99.90
46458;DHT22;32155;54.076;12.092;2023-04-25T11:01:27;12.30;99.90
46458;DHT22;32155;54.076;12.092;2023-04-25T11:04:00;12.70;99.90
46458;DHT22;32155;54.076;12.092;2023-04-25T11:10:02;13.10;99.90
46458;DHT22;32155;54.076;12.092;2023-04-25T11:13:11;12.80;99.90
46458;DHT22;32155;54.076;12.092;2023-04-25T11:16:19;13.10;99.90
46458;DHT22;32155;54.076;12.092;2023-04-25T12:11:49;13.60;99.90
46458;DHT22;32155;54.076;12.092;2023-04-25T12:14:50;13.40;99.90
46458;DHT22;32155;54.076;12.092;2023-04-25T12:28:08;12.20;99.90
46458;DHT22;32155;54.076;12.092;2023-04-25T12:34:07;11.70;99.90
46458;DHT22;32155;54.076;12.092;2023-04-25T12:40:47;11.00;99.90
46458;DHT22;32155;54.076;12.092;2023-04-25T12:43:21;10.80;99.90
46458;DHT22;32155;54.076;12.092;2023-04-25T12:46:12;10.80;99.90
46458;DHT22;32155;54.076;12.092;2023-04-25T12:56:04;12.30;99.90
46458;DHT22;32155;54.076;12.092;2023-04-25T12:59:41;16.20;99.90
46458;DHT22;32155;54.076;12.092;2023-04-25T13:06:37;18.10;96.40
46458;DHT22;32155;54.076;12.092;2023-04-25T13:09:59;16.30;96.40
46458;DHT22;32155;54.076;12.092;2023-04-25T13:12:45;15.40;98.00
46458;DHT22;32155;54.076;12.092;2023-04-25T15:42:45;12.90;99.90
46458;DHT22;32155;54.076;12.092;2023-04-25T15:45:29;12.70;99.90
46458;DHT22;32155;54.076;12.092;2023-04-25T15:47:57;12.50;99.90
46458;DHT22;32155;54.076;12.092;2023-04-25T15:50:23;12.40;99.90
46458;DHT22;32155;54.076;12.092;2023-04-25T15:52:53;12.20;99.90
46458;DHT22;32155;54.076;12.092;2023-04-25T15:55:20;12.00;99.90
46458;DHT22;32155;54.076;12.092;2023-04-25T15:57:48;11.80;99.90
46458;DHT22;32155;54.076;12.092;2023-04-25T16:00:14;11.40;99.90
46458;DHT22;32155;54.076;12.092;2023-04-25T16:02:42;11.10;99.90
46458;DHT22;32155;54.076;12.092;2023-04-25T16:05:11;10.80;99.90
46458;DHT22;32155;54.076;12.092;2023-04-25T16:07:42;10.40;99.90
46458;DHT22;32155;54.076;12.092;2023-04-25T16:10:11;10.30;99.90
46458;DHT22;32155;54.076;12.092;2023-04-25T16:12:39;10.30;99.90
46458;DHT22;32155;54.076;12.092;2023-04-25T16:15:06;10.40;99.90
46458;DHT22;32155;54.076;12.092;2023-04-25T16:17:34;10.50;99.90
46458;DHT22;32155;54.076;12.092;2023-04-25T16:20:00;10.50;99.90
46458;DHT22;32155;54.076;12.092;2023-04-25T16:22:30;10.70;99.90
46458;DHT22;32155;54.076;12.092;2023-04-25T16:24:59;10.60;99.90
46458;DHT22;32155;54.076;12.092;2023-04-25T16:27:24;10.60;99.90
46458;DHT22;32155;54.076;12.092;2023-04-25T16:29:53;10.60;99.90
46458;DHT22;32155;54.076;12.092;2023-04-25T16:32:23;10.50;99.90
46458;DHT22;32155;54.076;12.092;2023-04-25T16:34:49;10.60;99.90
46458;DHT22;32155;54.076;12.092;2023-04-25T16:37:17;10.70;99.90
46458;DHT22;32155;54.076;12.092;2023-04-25T16:39:42;10.60;99.90
46458;DHT22;32155;54.076;12.092;2023-04-25T16:42:08;10.40;99.90
46458;DHT22;32155;54.076;12.092;2023-04-25T16:44:34;10.30;99.90
46458;DHT22;32155;54.076;12.092;2023-04-25T16:47:00;10.40;99.90
46458;DHT22;32155;54.076;12.092;2023-04-25T16:49:26;10.30;99.90
46458;DHT22;32155;54.076;12.092;2023-04-25T16:51:51;10.20;99.90
46458;DHT22;32155;54.076;12.092;2023-04-25T16:54:17;10.20;99.90
46458;DHT22;32155;54.076;12.092;2023-04-25T16:56:45;10.30;99.90
46458;DHT22;32155;54.076;12.092;2023-04-25T16:59:16;10.30;99.90
46458;DHT22;32155;54.076;12.092;2023-04-25T17:01:41;10.30;99.90
46458;DHT22;32155;54.076;12.092;2023-04-25T17:04:07;10.20;99.90
46458;DHT22;32155;54.076;12.092;2023-04-25T17:06:33;10.10;99.90
46458;DHT22;32155;54.076;12.092;2023-04-25T17:08:59;10.10;99.90
46458;DHT22;32155;54.076;12.092;2023-04-25T17:11:25;10.00;99.90
46458;DHT22;32155;54.076;12.092;2023-04-25T17:13:51;9.80;99.90
46458;DHT22;32155;54.076;12.092;2023-04-25T17:16:22;9.40;99.90
46458;DHT22;32155;54.076;12.092;2023-04-25T17:18:58;9.20;99.90
46458;DHT22;32155;54.076;12.092;2023-04-25T17:21:23;9.00;99.90
46458;DHT22;32155;54.076;12.092;2023-04-25T17:23:49;8.90;99.90
46458;DHT22;32155;54.076;12.092;2023-04-25T17:26:15;8.80;99.90
46458;DHT22;32155;54.076;12.092;2023-04-25T17:28:40;8.80;99.90
46458;DHT22;32155;54.076;12.092;2023-04-25T17:31:14;8.90;99.90
46458;DHT22;32155;54.076;12.092;2023-04-25T17:33:40;8.90;99.90
46458;DHT22;32155;54.076;12.092;2023-04-25T17:36:08;8.80;99.90
46458;DHT22;32155;54.076;12.092;2023-04-25T17:38:33;8.70;99.90
46458;DHT22;32155;54.076;12.092;2023-04-25T17:41:01;8.60;99.90
46458;DHT22;32155;54.076;12.092;2023-04-25T17:43:27;8.50;99.90
46458;DHT22;32155;54.076;12.092;2023-04-25T17:45:53;8.40;99.90
46458;DHT22;32155;54.076;12.092;2023-04-25T17:48:21;8.30;99.90
46458;DHT22;32155;54.076;12.092;2023-04-25T17:50:50;8.20;99.90
46458;DHT22;32155;54.076;12.092;2023-04-25T17:53:16;8.00;99.90
46458;DHT22;32155;54.076;12.092;2023-04-25T17:55:45;7.90;99.90
46458;DHT22;32155;54.076;12.092;2023-04-25T17:58:10;8.00;99.90
46458;DHT22;32155;54.076;12.092;2023-04-25T18:00:39;8.00;99.90
46458;DHT22;32155;54.076;12.092;2023-04-25T18:03:05;8.10;99.90
46458;DHT22;32155;54.076;12.092;2023-04-25T18:05:31;8.10;99.90
46458;DHT22;32155;54.076;12.092;2023-04-25T18:07:57;8.10;99.90
46458;DHT22;32155;54.076;12.092;2023-04-25T18:10:23;8.10;99.90
46458;DHT22;32155;54.076;12.092;2023-04-25T18:12:50;8.10;99.90
46458;DHT22;32155;54.076;12.092;2023-04-25T18:15:15;8.00;99.90
46458;DHT22;32155;54.076;12.092;2023-04-25T18:17:42;8.00;99.90
46458;DHT22;32155;54.076;12.092;2023-04-25T18:20:22;8.00;99.90
46458;DHT22;32155;54.076;12.092;2023-04-25T18:22:48;7.90;99.90
46458;DHT22;32155;54.076;12.092;2023-04-25T18:25:14;7.80;99.90
46458;DHT22;32155;54.076;12.092;2023-04-25T18:27:42;7.80;99.90
46458;DHT22;32155;54.076;12.092;2023-04-25T18:30:11;7.60;99.90
46458;DHT22;32155;54.076;12.092;2023-04-25T18:32:38;7.50;99.90
46458;DHT22;32155;54.076;12.092;2023-04-25T18:35:04;7.40;99.90
46458;DHT22;32155;54.076;12.092;2023-04-25T18:37:33;7.30;99.90
46458;DHT22;32155;54.076;12.092;2023-04-25T18:39:59;7.20;99.90
46458;DHT22;32155;54.076;12.092;2023-04-25T18:42:32;7.10;99.90
46458;DHT22;32155;54.076;12.092;2023-04-25T18:45:02;7.00;99.90
46458;DHT22;32155;54.076;12.092;2023-04-25T18:47:29;7.00;99.90
46458;DHT22;32155;54.076;12.092;2023-04-25T18:49:55;7.00;99.90
46458;DHT22;32155;54.076;12.092;2023-04-25T18:52:21;6.90;99.90
46458;DHT22;32155;54.076;12.092;2023-04-25T18:54:47;7.00;99.90
46458;DHT22;32155;54.076;12.092;2023-04-25T18:57:14;7.00;99.90
46458;DHT22;32155;54.076;12.092;2023-04-25T18:59:42;6.90;99.90
46458;DHT22;32155;54.076;12.092;2023-04-25T19:02:10;6.80;99.90
46458;DHT22;32155;54.076;12.092;2023-04-25T19:04:35;6.70;99.90
46458;DHT22;32155;54.076;12.092;2023-04-25T19:07:01;6.60;99.90
46458;DHT22;32155;54.076;12.092;2023-04-25T19:09:28;6.50;99.90
46458;DHT22;32155;54.076;12.092;2023-04-25T19:11:54;6.50;99.90
46458;DHT22;32155;54.076;12.092;2023-04-25T19:14:19;6.50;99.90
46458;DHT22;32155;54.076;12.092;2023-04-25T19:17:11;6.50;99.90
46458;DHT22;32155;54.076;12.092;2023-04-25T19:20:27;6.40;99.90
46458;DHT22;32155;54.076;12.092;2023-04-25T19:27:42;6.40;99.90
46458;DHT22;32155;54.076;12.092;2023-04-25T19:30:50;6.30;99.90
46458;DHT22;32155;54.076;12.092;2023-04-25T19:33:37;6.20;99.90
46458;DHT22;32155;54.076;12.092;2023-04-25T19:36:37;6.20;99.90
46458;DHT22;32155;54.076;12.092;2023-04-25T19:39:06;6.20;99.90
46458;DHT22;32155;54.076;12.092;2023-04-25T19:41:38;6.20;99.90
46458;DHT22;32155;54.076;12.092;2023-04-25T19:44:05;6.10;99.90
46458;DHT22;32155;54.076;12.092;2023-04-25T19:46:32;6.20;99.90
46458;DHT22;32155;54.076;12.092;2023-04-25T19:49:02;6.10;99.90
46458;DHT22;32155;54.076;12.092;2023-04-25T19:51:30;6.10;99.90
46458;DHT22;32155;54.076;12.092;2023-04-25T19:53:56;6.10;99.90
46458;DHT22;32155;54.076;12.092;2023-04-25T19:56:24;6.30;99.90
46458;DHT22;32155;54.076;12.092;2023-04-25T19:58:52;6.20;99.90
46458;DHT22;32155;54.076;12.092;2023-04-25T20:01:18;6.20;99.90
46458;DHT22;32155;54.076;12.092;2023-04-25T20:03:46;6.10;99.90
46458;DHT22;32155;54.076;12.092;2023-04-25T20:06:16;6.00;99.90
46458;DHT22;32155;54.076;12.092;2023-04-25T20:08:42;5.90;99.90
46458;DHT22;32155;54.076;12.092;2023-04-25T20:11:08;5.90;99.90
46458;DHT22;32155;54.076;12.092;2023-04-25T20:13:44;5.80;99.90
46458;DHT22;32155;54.076;12.092;2023-04-25T20:19:33;5.70;99.90
46458;DHT22;32155;54.076;12.092;2023-04-25T20:22:04;5.80;99.90
46458;DHT22;32155;54.076;12.092;2023-04-25T20:24:43;5.80;99.90
46458;DHT22;32155;54.076;12.092;2023-04-25T20:38:59;5.90;99.90
46458;DHT22;32155;54.076;12.092;2023-04-25T20:56:10;5.50;99.90
46458;DHT22;32155;54.076;12.092;2023-04-25T20:58:57;5.50;99.90
46458;DHT22;32155;54.076;12.092;2023-04-25T21:01:40;5.50;99.90
46458;DHT22;32155;54.076;12.092;2023-04-25T21:04:35;5.50;99.90
46458;DHT22;32155;54.076;12.092;2023-04-25T21:55:31;5.00;99.90
46458;DHT22;32155;54.076;12.092;2023-04-25T21:57:57;5.10;99.90
46458;DHT22;32155;54.076;12.092;2023-04-25T22:00:29;5.10;99.90
46458;DHT22;32155;54.076;12.092;2023-04-25T22:03:04;5.10;99.90
46458;DHT22;32155;54.076;12.092;2023-04-25T22:05:34;5.00;99.90
46458;DHT22;32155;54.076;12.092;2023-04-25T22:08:03;5.00;99.90
46458;DHT22;32155;54.076;12.092;2023-04-25T22:10:31;4.90;99.90
46458;DHT22;32155;54.076;12.092;2023-04-25T22:12:58;5.00;99.90
46458;DHT22;32155;54.076;12.092;2023-04-25T22:15:24;4.90;99.90
46458;DHT22;32155;54.076;12.092;2023-04-25T22:17:56;5.00;99.90
46458;DHT22;32155;54.076;12.092;2023-04-25T22:20:26;4.90;99.90
46458;DHT22;32155;54.076;12.092;2023-04-25T22:22:53;4.90;99.90
46458;DHT22;32155;54.076;12.092;2023-04-25T22:25:25;4.80;99.90
46458;DHT22;32155;54.076;12.092;2023-04-25T22:28:23;4.90;99.90
46458;DHT22;32155;54.076;12.092;2023-04-25T22:31:09;4.90;99.90
46458;DHT22;32155;54.076;12.092;2023-04-25T22:34:06;4.90;99.90
46458;DHT22;32155;54.076;12.092;2023-04-25T22:36:38;4.90;99.90
46458;DHT22;32155;54.076;12.092;2023-04-25T22:39:04;4.90;99.90
46458;DHT22;32155;54.076;12.092;2023-04-25T22:41:30;4.90;99.90
46458;DHT22;32155;54.076;12.092;2023-04-25T22:43:56;4.90;99.90
46458;DHT22;32155;54.076;12.092;2023-04-25T22:46:25;4.80;99.90
46458;DHT22;32155;54.076;12.092;2023-04-25T22:49:12;4.80;99.90
46458;DHT22;32155;54.076;12.092;2023-04-25T22:52:02;4.80;99.90
46458;DHT22;32155;54.076;12.092;2023-04-25T22:58:25;4.90;99.90
46458;DHT22;32155;54.076;12.092;2023-04-25T23:07:26;4.80;99.90
46458;DHT22;32155;54.076;12.092;2023-04-25T23:10:26;4.80;99.90
46458;DHT22;32155;54.076;12.092;2023-04-25T23:13:31;4.70;99.90
46458;DHT22;32155;54.076;12.092;2023-04-25T23:16:22;4.80;99.90
46458;DHT22;32155;54.076;12.092;2023-04-25T23:18:51;4.80;99.90
46458;DHT22;32155;54.076;12.092;2023-04-25T23:21:37;4.80;99.90
46458;DHT22;32155;54.076;12.092;2023-04-25T23:24:10;4.90;99.90
46458;DHT22;32155;54.076;12.092;2023-04-25T23:26:57;5.00;99.90
46458;DHT22;32155;54.076;12.092;2023-04-25T23:32:20;5.20;99.90
46458;DHT22;32155;54.076;12.092;2023-04-25T23:34:49;5.30;99.90
46458;DHT22;32155;54.076;12.092;2023-04-25T23:37:15;5.20;99.90
46458;DHT22;32155;54.076;12.092;2023-04-25T23:42:37;5.10;99.90
46458;DHT22;32155;54.076;12.092;2023-04-25T23:45:04;5.20;99.90
46458;DHT22;32155;54.076;12.092;2023-04-25T23:47:31;5.20;99.90
46458;DHT22;32155;54.076;12.092;2023-04-25T23:49:57;5.20;99.90
46458;DHT22;32155;54.076;12.092;2023-04-25T23:52:23;5.20;99.90